Last 24 Hours

Ukiah-SE (Ruddick)

Hourly Data | America/Los_Angeles
as of 5/6/26 5:52 AM PDT
Date & Time Temp (°F) RH (%) Dew Pt (°F) Wet Bulb (°F) Wind Dir (°) Wind Spd (mph) Wind Gust (mph) Solar Rad (W/m2) Leaf Wet (mins) Latest Rain (In) Precip 24Hr (In) Daily Rain (In) Daily Min Temp (°F) Daily Max Temp (°F) Daily Leaf Wet (Hrs) Daily ETo (in)
5/6/26 - 0500 55.1 81 49.3 52.6 NNW | 344 1.6 3.8 0 0.0 0.00 - 0.00 54.5 55.4 0.0 0.000
5/6/26 - 0400 55.2 79 49.0 52.5 NNE | 13 1.1 3.2 0 0.0 0.00 - 0.00 54.5 55.4 0.0 0.000
5/6/26 - 0300 54.8 80 48.8 52.2 NNW | 345 2.1 4.3 0 0.0 0.00 - 0.00 54.5 55.1 0.0 0.000
5/6/26 - 0200 54.6 80 48.7 52.1 NNW | 331 3.5 6.4 0 0.0 0.00 - 0.00 54.5 54.9 0.0 0.000
5/6/26 - 0100 55.0 79 48.8 52.3 NNW | 343 4.1 6.8 0 0.0 0.00 - 0.00 51.7 72.3 0.0 0.154
5/6/26 - 0000 55.1 79 48.8 52.4 NNW | 337 3.9 6.4 0 0.0 0.00 - 0.00 51.7 72.3 0.0 0.153
5/5/26 - 2300 55.6 77 48.7 52.5 N | 356 5.1 8.5 0 0.0 0.00 - 0.00 51.7 72.3 0.0 0.153
5/5/26 - 2200 56.1 76 48.6 52.6 N | 4 5.6 10.0 0 0.0 0.00 - 0.00 51.7 72.3 0.0 0.153
5/5/26 - 2100 56.6 75 48.7 52.9 N | 1 6.1 10.6 2 0.0 0.00 - 0.00 51.7 72.3 0.0 0.152
5/5/26 - 2000 59.8 68 49.2 54.4 N | 3 8.3 14.7 71 0.0 0.00 - 0.00 51.7 72.3 0.0 0.151
5/5/26 - 1900 64.0 60 49.9 56.3 N | 357 9.2 14.9 216 0.0 0.00 - 0.00 51.7 72.3 0.0 0.149
5/5/26 - 1800 65.8 58 50.5 57.2 NNW | 348 7.9 13.8 227 0.0 0.00 - 0.00 51.7 72.3 0.0 0.143
5/5/26 - 1700 68.4 54 51.2 58.4 NNW | 332 10.1 16.8 464 0.0 0.00 - 0.00 51.7 72.3 0.0 0.135
5/5/26 - 1600 70.9 50 51.2 59.2 NW | 304 6.8 15.6 592 0.0 0.00 - 0.00 51.7 72.3 0.0 0.122
5/5/26 - 1500 70.5 49 50.3 58.5 S | 170 3.9 9.7 805 0.0 0.00 - 0.00 51.7 71.4 0.0 0.106
5/5/26 - 1400 68.6 50 49.5 57.5 W | 276 3.0 9.3 835 0.0 0.00 - 0.00 51.7 70.4 0.0 0.085
5/5/26 - 1300 65.9 54 48.8 56.3 ENE | 60 3.1 8.5 802 0.0 0.00 0.01 0.00 51.7 67.9 0.0 0.064
5/5/26 - 1200 63.0 58 48.0 54.9 N | 350 4.6 9.7 796 0.0 0.00 0.06 0.00 51.7 64.7 0.0 0.044
5/5/26 - 1100 59.2 64 47.0 52.9 NNW | 342 4.2 10.5 451 0.0 0.00 0.06 0.00 51.7 62.1 0.0 0.026
5/5/26 - 1000 57.6 67 46.7 52.2 NNW | 347 4.7 9.5 272 0.0 0.00 0.06 0.00 51.7 58.8 0.0 0.015
5/5/26 - 0900 55.3 74 47.1 51.5 N | 2 4.8 8.9 219 0.0 0.00 0.06 0.00 51.7 57.8 0.0 0.009
5/5/26 - 0800 53.4 80 47.2 50.7 N | 3 3.3 6.6 60 0.0 0.00 0.06 0.00 51.7 54.1 0.0 0.004
5/5/26 - 0700 52.1 85 47.7 50.4 N | 6 2.1 4.5 14 0.0 0.00 0.06 0.00 51.7 52.7 0.0 0.002
5/5/26 - 0600 52.1 84 47.4 50.2 N | 354 1.3 3.9 0 0.0 0.00 0.06 0.00 51.7 52.7 0.0 0.002
5/5/26 - 0500 52.4 82 47.0 50.1 NNE | 16 3.1 6.8 0 0.0 0.00 0.06 0.00 51.8 52.7 0.0 0.002
Max 70.9 85 51.2 59.2 - 10.1 16.8 835 0.0 0.00 0.06 0.00 54.5 72.3 0.0 0.154
Avg 59.1 70 48.7 53.7 - 4.5 9.0 233 0.0 0.00 0.05 - - - - -
Min 52.1 49 46.7 50.1 - 1.1 3.2 0 0.0 0.00 0.01 0.00 51.7 52.7 0.0 0.000
Total - - - - - - - - - 0.00 - - - - - -